KMJQ

Jackson Municipal Airport

Jackson, Minnesota, USA
METAR KMJQ 260315Z AUTO 21009KT 10SM CLR M05/M08 A2998 RMK AO2
Observed Flight Rules
Feb-26 @ 03:15 UTC (8 minutes ago) Visual Flight Rules
Wind Visibility Clouds
210° at 9 knots 10 miles
  • Clear skies
Temperatures Readings
Current -5°C / 23°F
Dewpoint -8°C / 18°F
Humidity 80%
Altimeter 29.98" Hg
Pressure 1015 hPa
Elevation 441
METAR KMJQ 260315Z AUTO 21009KT 10SM CLR M05/M08 A2998 RMK AO2
Observed Flight Rules
Feb-26 @ 03:15 UTC
(8 minutes ago)
VFR
Wind Visibility
210° at 9 knots 10 miles
Clouds
  • Clear skies
Temperature Dewpoint
-5°C / 23°F -8°C / 18°F
Humidity Altimeter Pressure
80% 29.98" Hg 1015 hPa